AAY4955 KMKE-KDCA
Flight info
| Callsign | AAY4955 |
|---|---|
| Flight time | 1h 24m |
| Altitude | 37000 |
| Route | UECKR6 SAMPL ADIME OTENS ANEWA JERRI NUSMM BUCKO FRDMM6 |
| Aircraft | A20N/M-SDE2E3FGHIRWXY/LB1 |
Departure
| Time | 2026-04-15 10:25 |
|---|---|
| Airport | General Mitchell International Airport (KMKE) |
Arrival
| Time | 2026-04-15 11:50 |
|---|---|
| Airport | Ronald Reagan Washington National Airport (KDCA) |
| Time | Latitude | Longitude | Altitude | Speed | Heading |
|---|---|---|---|---|---|
| 2026-04-15 10:12 | 42.94644 | -87.89916 | 678 ft | 0 kts | 43° |
| 2026-04-15 10:15 | 42.94641 | -87.89922 | 678 ft | 2 kts | 37° |
| 2026-04-15 10:15 | 42.94629 | -87.89934 | 678 ft | 2 kts | 45° |
| 2026-04-15 10:15 | 42.94619 | -87.89948 | 678 ft | 2 kts | 42° |
| 2026-04-15 10:15 | 42.94607 | -87.89963 | 678 ft | 2 kts | 43° |
| 2026-04-15 10:16 | 42.94599 | -87.89977 | 679 ft | 2 kts | 84° |
| 2026-04-15 10:16 | 42.94603 | -87.89997 | 679 ft | 2 kts | 133° |
| 2026-04-15 10:16 | 42.94610 | -87.90004 | 679 ft | 0 kts | 163° |
| 2026-04-15 10:16 | 42.94617 | -87.90006 | 679 ft | 0 kts | 166° |
| 2026-04-15 10:19 | 42.94603 | -87.90001 | 679 ft | 4 kts | 166° |
| 2026-04-15 10:19 | 42.94584 | -87.89995 | 679 ft | 7 kts | 166° |
| 2026-04-15 10:19 | 42.94546 | -87.89964 | 680 ft | 10 kts | 126° |
| 2026-04-15 10:19 | 42.94550 | -87.89882 | 678 ft | 15 kts | 64° |
| 2026-04-15 10:20 | 42.94621 | -87.89757 | 677 ft | 17 kts | 32° |
| 2026-04-15 10:20 | 42.94736 | -87.89713 | 675 ft | 11 kts | 32° |
| 2026-04-15 10:20 | 42.94794 | -87.89633 | 675 ft | 12 kts | 31° |
| 2026-04-15 10:20 | 42.94882 | -87.89603 | 674 ft | 13 kts | 6° |
| 2026-04-15 10:21 | 42.94986 | -87.89587 | 672 ft | 15 kts | 7° |
| 2026-04-15 10:21 | 42.95097 | -87.89568 | 672 ft | 15 kts | 7° |
| 2026-04-15 10:21 | 42.95202 | -87.89551 | 674 ft | 14 kts | 7° |
| 2026-04-15 10:21 | 42.95303 | -87.89533 | 675 ft | 14 kts | 7° |
| 2026-04-15 10:22 | 42.95405 | -87.89516 | 675 ft | 15 kts | 7° |
| 2026-04-15 10:22 | 42.95511 | -87.89497 | 675 ft | 15 kts | 7° |
| 2026-04-15 10:22 | 42.95613 | -87.89479 | 677 ft | 14 kts | 7° |
| 2026-04-15 10:22 | 42.95709 | -87.89462 | 678 ft | 14 kts | 7° |
| 2026-04-15 10:23 | 42.95742 | -87.89410 | 678 ft | 8 kts | 83° |
| 2026-04-15 10:23 | 42.95734 | -87.89332 | 678 ft | 8 kts | 130° |
| 2026-04-15 10:23 | 42.95702 | -87.89314 | 678 ft | 0 kts | 182° |
| 2026-04-15 10:24 | 42.95700 | -87.89314 | 678 ft | 0 kts | 182° |
| 2026-04-15 10:24 | 42.95690 | -87.89315 | 678 ft | 2 kts | 182° |
| 2026-04-15 10:24 | 42.95624 | -87.89326 | 678 ft | 32 kts | 188° |
| 2026-04-15 10:24 | 42.95149 | -87.89407 | 675 ft | 101 kts | 187° |
| 2026-04-15 10:25 | 42.94258 | -87.89561 | 678 ft | 154 kts | 187° |
| 2026-04-15 10:25 | 42.93098 | -87.89735 | 972 ft | 174 kts | 188° |
| 2026-04-15 10:25 | 42.91922 | -87.89901 | 1691 ft | 169 kts | 191° |
| 2026-04-15 10:25 | 42.90754 | -87.89836 | 2405 ft | 177 kts | 167° |
| 2026-04-15 10:26 | 42.89750 | -87.88717 | 2843 ft | 205 kts | 133° |
| 2026-04-15 10:26 | 42.88826 | -87.87140 | 3269 ft | 217 kts | 144° |
| 2026-04-15 10:26 | 42.87618 | -87.85792 | 3708 ft | 230 kts | 149° |
| 2026-04-15 10:26 | 42.86288 | -87.84414 | 4062 ft | 254 kts | 148° |
| 2026-04-15 10:27 | 42.84870 | -87.82870 | 4537 ft | 273 kts | 146° |
| 2026-04-15 10:27 | 42.83364 | -87.81145 | 5172 ft | 286 kts | 144° |
| 2026-04-15 10:27 | 42.81879 | -87.79388 | 5991 ft | 290 kts | 143° |
| 2026-04-15 10:27 | 42.80357 | -87.77563 | 6825 ft | 293 kts | 143° |
| 2026-04-15 10:28 | 42.78845 | -87.75743 | 7586 ft | 298 kts | 142° |
| 2026-04-15 10:28 | 42.77291 | -87.73871 | 8378 ft | 301 kts | 143° |
| 2026-04-15 10:28 | 42.75704 | -87.71960 | 9136 ft | 306 kts | 143° |
| 2026-04-15 10:28 | 42.74112 | -87.70047 | 9867 ft | 310 kts | 143° |
| 2026-04-15 10:29 | 42.72490 | -87.68098 | 10531 ft | 317 kts | 143° |
| 2026-04-15 10:29 | 42.70785 | -87.66103 | 10909 ft | 332 kts | 148° |
| 2026-04-15 10:29 | 42.68747 | -87.64613 | 11231 ft | 339 kts | 167° |
| 2026-04-15 10:29 | 42.66389 | -87.64040 | 11586 ft | 345 kts | 181° |
| 2026-04-15 10:30 | 42.63988 | -87.63882 | 12251 ft | 350 kts | 183° |
| 2026-04-15 10:30 | 42.61557 | -87.63742 | 13044 ft | 351 kts | 182° |
| 2026-04-15 10:30 | 42.59142 | -87.63589 | 13768 ft | 352 kts | 182° |
| 2026-04-15 10:30 | 42.56688 | -87.63419 | 14495 ft | 353 kts | 182° |
| 2026-04-15 10:31 | 42.54261 | -87.63242 | 15184 ft | 355 kts | 182° |
| 2026-04-15 10:31 | 42.51778 | -87.63055 | 15806 ft | 358 kts | 182° |
| 2026-04-15 10:31 | 42.49303 | -87.62858 | 16440 ft | 360 kts | 182° |
| 2026-04-15 10:31 | 42.46806 | -87.62657 | 17078 ft | 362 kts | 182° |
| 2026-04-15 10:32 | 42.44296 | -87.62537 | 17662 ft | 363 kts | 186° |
| 2026-04-15 10:32 | 42.41765 | -87.62668 | 18239 ft | 363 kts | 190° |
| 2026-04-15 10:32 | 42.39290 | -87.63055 | 18818 ft | 362 kts | 194° |
| 2026-04-15 10:32 | 42.36769 | -87.63586 | 19387 ft | 364 kts | 194° |
| 2026-04-15 10:33 | 42.34261 | -87.64077 | 19879 ft | 371 kts | 191° |
| 2026-04-15 10:33 | 42.31653 | -87.64049 | 20263 ft | 385 kts | 180° |
| 2026-04-15 10:33 | 42.28994 | -87.63306 | 20745 ft | 397 kts | 169° |
| 2026-04-15 10:33 | 42.26391 | -87.61986 | 21288 ft | 403 kts | 164° |
| 2026-04-15 10:34 | 42.23787 | -87.60544 | 21762 ft | 407 kts | 164° |
| 2026-04-15 10:34 | 42.21175 | -87.59080 | 22247 ft | 409 kts | 164° |
| 2026-04-15 10:34 | 42.18544 | -87.57609 | 22702 ft | 412 kts | 165° |
| 2026-04-15 10:34 | 42.15883 | -87.56133 | 23113 ft | 416 kts | 164° |
| 2026-04-15 10:35 | 42.13193 | -87.54648 | 23584 ft | 418 kts | 164° |
| 2026-04-15 10:35 | 42.10534 | -87.53180 | 24048 ft | 420 kts | 165° |
| 2026-04-15 10:35 | 42.07820 | -87.51684 | 24543 ft | 420 kts | 165° |
| 2026-04-15 10:35 | 42.05100 | -87.50193 | 24955 ft | 423 kts | 165° |
| 2026-04-15 10:36 | 42.02420 | -87.48572 | 25329 ft | 434 kts | 156° |
| 2026-04-15 10:36 | 42.00037 | -87.45906 | 25609 ft | 458 kts | 137° |
| 2026-04-15 10:36 | 41.98378 | -87.42306 | 25954 ft | 478 kts | 117° |
| 2026-04-15 10:36 | 41.97608 | -87.37914 | 26337 ft | 493 kts | 97° |
| 2026-04-15 10:37 | 41.97528 | -87.33319 | 26749 ft | 496 kts | 94° |
| 2026-04-15 10:37 | 41.97526 | -87.28721 | 27108 ft | 498 kts | 94° |
| 2026-04-15 10:37 | 41.97519 | -87.24057 | 27497 ft | 499 kts | 94° |
| 2026-04-15 10:37 | 41.97488 | -87.19426 | 27815 ft | 501 kts | 95° |
| 2026-04-15 10:38 | 41.97441 | -87.14726 | 28249 ft | 501 kts | 95° |
| 2026-04-15 10:38 | 41.97377 | -87.10103 | 28696 ft | 499 kts | 95° |
| 2026-04-15 10:38 | 41.97306 | -87.05434 | 29137 ft | 498 kts | 95° |
| 2026-04-15 10:38 | 41.97232 | -87.00789 | 29514 ft | 499 kts | 96° |
| 2026-04-15 10:39 | 41.97152 | -86.96140 | 29910 ft | 499 kts | 96° |
| 2026-04-15 10:39 | 41.97075 | -86.91517 | 30273 ft | 499 kts | 95° |
| 2026-04-15 10:39 | 41.96990 | -86.86812 | 30591 ft | 501 kts | 96° |
| 2026-04-15 10:39 | 41.96903 | -86.82159 | 30913 ft | 503 kts | 95° |
| 2026-04-15 10:40 | 41.96815 | -86.77496 | 31232 ft | 504 kts | 95° |
| 2026-04-15 10:40 | 41.96724 | -86.72823 | 31598 ft | 503 kts | 95° |
| 2026-04-15 10:40 | 41.96638 | -86.68127 | 31943 ft | 503 kts | 95° |
| 2026-04-15 10:40 | 41.96544 | -86.63396 | 32248 ft | 505 kts | 96° |
| 2026-04-15 10:41 | 41.96452 | -86.58695 | 32587 ft | 504 kts | 95° |
| 2026-04-15 10:41 | 41.96352 | -86.54024 | 32923 ft | 504 kts | 95° |
| 2026-04-15 10:41 | 41.96253 | -86.49355 | 33161 ft | 506 kts | 95° |
| 2026-04-15 10:41 | 41.96149 | -86.44618 | 33430 ft | 506 kts | 94° |
| 2026-04-15 10:42 | 41.96049 | -86.39901 | 33747 ft | 506 kts | 94° |
| 2026-04-15 10:42 | 41.95949 | -86.35219 | 34076 ft | 505 kts | 96° |
| 2026-04-15 10:42 | 41.95841 | -86.30498 | 34382 ft | 505 kts | 96° |
| 2026-04-15 10:42 | 41.95680 | -86.25822 | 34637 ft | 503 kts | 99° |
| 2026-04-15 10:43 | 41.95310 | -86.21188 | 34856 ft | 501 kts | 103° |
| 2026-04-15 10:43 | 41.94696 | -86.16598 | 35047 ft | 499 kts | 108° |
| 2026-04-15 10:43 | 41.93871 | -86.12102 | 35313 ft | 496 kts | 110° |
| 2026-04-15 10:43 | 41.92971 | -86.07642 | 35552 ft | 496 kts | 111° |
| 2026-04-15 10:44 | 41.92067 | -86.03179 | 35712 ft | 498 kts | 111° |
| 2026-04-15 10:44 | 41.91164 | -85.98714 | 35903 ft | 499 kts | 111° |
| 2026-04-15 10:44 | 41.90267 | -85.94228 | 36024 ft | 501 kts | 111° |
| 2026-04-15 10:44 | 41.89363 | -85.89713 | 36188 ft | 502 kts | 111° |
| 2026-04-15 10:45 | 41.88468 | -85.85239 | 36397 ft | 503 kts | 110° |
| 2026-04-15 10:45 | 41.87563 | -85.80692 | 36570 ft | 504 kts | 110° |
| 2026-04-15 10:45 | 41.86655 | -85.76148 | 36670 ft | 506 kts | 110° |
| 2026-04-15 10:45 | 41.85744 | -85.71590 | 36776 ft | 508 kts | 110° |
| 2026-04-15 10:46 | 41.84830 | -85.67013 | 36856 ft | 510 kts | 110° |
| 2026-04-15 10:46 | 41.82988 | -85.57875 | 36856 ft | 511 kts | 109° |
| 2026-04-15 10:47 | 41.81134 | -85.48701 | 36868 ft | 512 kts | 110° |
| 2026-04-15 10:47 | 41.79277 | -85.39537 | 36871 ft | 511 kts | 109° |
| 2026-04-15 10:48 | 41.77414 | -85.30369 | 36860 ft | 510 kts | 110° |
| 2026-04-15 10:48 | 41.75539 | -85.21230 | 36865 ft | 512 kts | 110° |
| 2026-04-15 10:49 | 41.73665 | -85.12123 | 36866 ft | 511 kts | 111° |
| 2026-04-15 10:49 | 41.71794 | -85.03047 | 36862 ft | 508 kts | 109° |
| 2026-04-15 10:50 | 41.69900 | -84.93940 | 36862 ft | 510 kts | 109° |
| 2026-04-15 10:50 | 41.68004 | -84.84808 | 36868 ft | 510 kts | 109° |
| 2026-04-15 10:51 | 41.66589 | -84.75562 | 36870 ft | 513 kts | 100° |
| 2026-04-15 10:51 | 41.66031 | -84.66012 | 36866 ft | 516 kts | 93° |
| 2026-04-15 10:52 | 41.65679 | -84.56459 | 36871 ft | 516 kts | 94° |
| 2026-04-15 10:52 | 41.65291 | -84.46947 | 36869 ft | 516 kts | 93° |
| 2026-04-15 10:53 | 41.64866 | -84.37399 | 36873 ft | 515 kts | 93° |
| 2026-04-15 10:53 | 41.64439 | -84.27895 | 36873 ft | 515 kts | 95° |
| 2026-04-15 10:54 | 41.63992 | -84.18344 | 36884 ft | 516 kts | 94° |
| 2026-04-15 10:54 | 41.63546 | -84.08854 | 36885 ft | 515 kts | 94° |
| 2026-04-15 10:55 | 41.63086 | -83.99270 | 36882 ft | 517 kts | 93° |
| 2026-04-15 10:55 | 41.62627 | -83.89736 | 36891 ft | 514 kts | 93° |
| 2026-04-15 10:56 | 41.62164 | -83.80265 | 36892 ft | 515 kts | 93° |
| 2026-04-15 10:56 | 41.61685 | -83.70781 | 36890 ft | 513 kts | 93° |
| 2026-04-15 10:57 | 41.60973 | -83.61346 | 36897 ft | 510 kts | 99° |
| 2026-04-15 10:57 | 41.58342 | -83.47669 | 36905 ft | 507 kts | 109° |
| 2026-04-15 10:58 | 41.56277 | -83.38687 | 36905 ft | 507 kts | 108° |
| 2026-04-15 10:58 | 41.54254 | -83.29761 | 36909 ft | 506 kts | 109° |
| 2026-04-15 10:59 | 41.52216 | -83.20766 | 36902 ft | 506 kts | 109° |
| 2026-04-15 10:59 | 41.50201 | -83.11867 | 36910 ft | 504 kts | 109° |
| 2026-04-15 11:00 | 41.48173 | -83.02943 | 36918 ft | 502 kts | 108° |
| 2026-04-15 11:00 | 41.46159 | -82.94119 | 36922 ft | 500 kts | 109° |
| 2026-04-15 11:01 | 41.44137 | -82.85293 | 36917 ft | 501 kts | 108° |
| 2026-04-15 11:01 | 41.42096 | -82.76419 | 36920 ft | 500 kts | 109° |
| 2026-04-15 11:02 | 41.39943 | -82.67708 | 36917 ft | 498 kts | 115° |
| 2026-04-15 11:02 | 41.36827 | -82.59599 | 36923 ft | 493 kts | 127° |
| 2026-04-15 11:03 | 41.32662 | -82.52440 | 36905 ft | 485 kts | 138° |
| 2026-04-15 11:03 | 41.27983 | -82.46117 | 36915 ft | 481 kts | 140° |
| 2026-04-15 11:04 | 41.23280 | -82.39843 | 36908 ft | 480 kts | 139° |
| 2026-04-15 11:04 | 41.18573 | -82.33513 | 36914 ft | 480 kts | 140° |
| 2026-04-15 11:05 | 41.13928 | -82.27248 | 36919 ft | 479 kts | 140° |
| 2026-04-15 11:05 | 41.09254 | -82.20951 | 36918 ft | 477 kts | 140° |
| 2026-04-15 11:06 | 41.04615 | -82.14718 | 36921 ft | 478 kts | 139° |
| 2026-04-15 11:06 | 40.99998 | -82.08519 | 36939 ft | 478 kts | 139° |
| 2026-04-15 11:07 | 40.95334 | -82.02264 | 36939 ft | 475 kts | 140° |
| 2026-04-15 11:07 | 40.90698 | -81.96069 | 36952 ft | 474 kts | 140° |
| 2026-04-15 11:08 | 40.86062 | -81.89892 | 36958 ft | 473 kts | 140° |
| 2026-04-15 11:08 | 40.81424 | -81.83720 | 36961 ft | 474 kts | 140° |
| 2026-04-15 11:09 | 40.76788 | -81.77567 | 36965 ft | 474 kts | 140° |
| 2026-04-15 11:09 | 40.72165 | -81.71440 | 36967 ft | 473 kts | 140° |
| 2026-04-15 11:10 | 40.67553 | -81.65339 | 36961 ft | 470 kts | 140° |
| 2026-04-15 11:10 | 40.62940 | -81.59253 | 36966 ft | 471 kts | 140° |
| 2026-04-15 11:11 | 40.58302 | -81.53146 | 36968 ft | 471 kts | 140° |
| 2026-04-15 11:11 | 40.53688 | -81.47082 | 36981 ft | 470 kts | 140° |
| 2026-04-15 11:12 | 40.49106 | -81.41071 | 36982 ft | 468 kts | 140° |
| 2026-04-15 11:12 | 40.44497 | -81.35039 | 36991 ft | 468 kts | 140° |
| 2026-04-15 11:13 | 40.39908 | -81.29045 | 36988 ft | 467 kts | 140° |
| 2026-04-15 11:13 | 40.35310 | -81.23052 | 36991 ft | 465 kts | 140° |
| 2026-04-15 11:14 | 40.30728 | -81.17094 | 36987 ft | 466 kts | 140° |
| 2026-04-15 11:14 | 40.26130 | -81.11120 | 36992 ft | 464 kts | 140° |
| 2026-04-15 11:15 | 40.21550 | -81.05190 | 36993 ft | 464 kts | 140° |
| 2026-04-15 11:15 | 40.16974 | -80.99271 | 37003 ft | 464 kts | 140° |
| 2026-04-15 11:16 | 40.12399 | -80.93364 | 37011 ft | 463 kts | 140° |
| 2026-04-15 11:16 | 40.07842 | -80.87493 | 37010 ft | 464 kts | 140° |
| 2026-04-15 11:17 | 40.03231 | -80.81568 | 37013 ft | 465 kts | 140° |
| 2026-04-15 11:17 | 39.98757 | -80.75549 | 37019 ft | 466 kts | 138° |
| 2026-04-15 11:18 | 39.94293 | -80.69441 | 37022 ft | 466 kts | 138° |
| 2026-04-15 11:18 | 39.89793 | -80.63319 | 37022 ft | 467 kts | 137° |
| 2026-04-15 11:19 | 39.85325 | -80.57265 | 37024 ft | 468 kts | 137° |
| 2026-04-15 11:19 | 39.80793 | -80.51139 | 37036 ft | 468 kts | 137° |
| 2026-04-15 11:20 | 39.76281 | -80.45061 | 37048 ft | 470 kts | 137° |
| 2026-04-15 11:20 | 39.71777 | -80.38997 | 37051 ft | 470 kts | 137° |
| 2026-04-15 11:21 | 39.67214 | -80.32868 | 37052 ft | 471 kts | 137° |
| 2026-04-15 11:21 | 39.62672 | -80.26778 | 37063 ft | 473 kts | 138° |
| 2026-04-15 11:22 | 39.58107 | -80.20666 | 37067 ft | 476 kts | 138° |
| 2026-04-15 11:22 | 39.53483 | -80.14499 | 37065 ft | 478 kts | 138° |
| 2026-04-15 11:23 | 39.48866 | -80.08347 | 37078 ft | 476 kts | 138° |
| 2026-04-15 11:23 | 39.44290 | -80.02261 | 37077 ft | 477 kts | 137° |
| 2026-04-15 11:24 | 39.39639 | -79.96091 | 37040 ft | 476 kts | 137° |
| 2026-04-15 11:24 | 39.37345 | -79.93050 | 36452 ft | 479 kts | 137° |
| 2026-04-15 11:24 | 39.34998 | -79.89953 | 35359 ft | 488 kts | 136° |
| 2026-04-15 11:25 | 39.32709 | -79.86690 | 34317 ft | 495 kts | 128° |
| 2026-04-15 11:25 | 39.30823 | -79.82974 | 33359 ft | 499 kts | 117° |
| 2026-04-15 11:25 | 39.29452 | -79.78907 | 32547 ft | 499 kts | 106° |
| 2026-04-15 11:25 | 39.28628 | -79.74628 | 31757 ft | 497 kts | 96° |
| 2026-04-15 11:26 | 39.28238 | -79.70228 | 31021 ft | 495 kts | 92° |
| 2026-04-15 11:26 | 39.27965 | -79.65853 | 30910 ft | 480 kts | 91° |
| 2026-04-15 11:26 | 39.27385 | -79.57375 | 30967 ft | 478 kts | 92° |
| 2026-04-15 11:27 | 39.26701 | -79.48842 | 30970 ft | 478 kts | 92° |
| 2026-04-15 11:27 | 39.26355 | -79.44585 | 30260 ft | 484 kts | 93° |
| 2026-04-15 11:27 | 39.26002 | -79.40256 | 29430 ft | 488 kts | 93° |
| 2026-04-15 11:28 | 39.25644 | -79.35909 | 28660 ft | 490 kts | 93° |
| 2026-04-15 11:28 | 39.25286 | -79.31583 | 28032 ft | 488 kts | 94° |
| 2026-04-15 11:28 | 39.24927 | -79.27277 | 27567 ft | 482 kts | 94° |
| 2026-04-15 11:28 | 39.24569 | -79.22991 | 27266 ft | 472 kts | 94° |
| 2026-04-15 11:29 | 39.24221 | -79.18870 | 26806 ft | 467 kts | 94° |
| 2026-04-15 11:29 | 39.23867 | -79.14700 | 26324 ft | 462 kts | 94° |
| 2026-04-15 11:29 | 39.23523 | -79.10652 | 25858 ft | 458 kts | 94° |
| 2026-04-15 11:29 | 39.23174 | -79.06575 | 25380 ft | 454 kts | 94° |
| 2026-04-15 11:30 | 39.22829 | -79.02541 | 24903 ft | 451 kts | 94° |
| 2026-04-15 11:30 | 39.22488 | -78.98592 | 24437 ft | 448 kts | 94° |
| 2026-04-15 11:30 | 39.22137 | -78.94607 | 23971 ft | 444 kts | 95° |
| 2026-04-15 11:30 | 39.21766 | -78.90688 | 23509 ft | 441 kts | 95° |
| 2026-04-15 11:31 | 39.21381 | -78.86768 | 23044 ft | 438 kts | 95° |
| 2026-04-15 11:31 | 39.21000 | -78.82897 | 22603 ft | 435 kts | 95° |
| 2026-04-15 11:31 | 39.20626 | -78.79050 | 22160 ft | 432 kts | 95° |
| 2026-04-15 11:31 | 39.20256 | -78.75263 | 21724 ft | 429 kts | 95° |
| 2026-04-15 11:32 | 39.19885 | -78.71456 | 21278 ft | 426 kts | 95° |
| 2026-04-15 11:32 | 39.19519 | -78.67727 | 20831 ft | 424 kts | 96° |
| 2026-04-15 11:32 | 39.19150 | -78.63982 | 20378 ft | 421 kts | 96° |
| 2026-04-15 11:32 | 39.18778 | -78.60233 | 19926 ft | 418 kts | 95° |
| 2026-04-15 11:33 | 39.18414 | -78.56548 | 19482 ft | 415 kts | 96° |
| 2026-04-15 11:33 | 39.18051 | -78.52875 | 19033 ft | 413 kts | 96° |
| 2026-04-15 11:33 | 39.17686 | -78.49234 | 18588 ft | 410 kts | 96° |
| 2026-04-15 11:33 | 39.17325 | -78.45622 | 18139 ft | 407 kts | 96° |
| 2026-04-15 11:34 | 39.16965 | -78.42040 | 17696 ft | 405 kts | 96° |
| 2026-04-15 11:34 | 39.16574 | -78.38497 | 17261 ft | 402 kts | 99° |
| 2026-04-15 11:34 | 39.15989 | -78.34996 | 16864 ft | 398 kts | 104° |
| 2026-04-15 11:34 | 39.15212 | -78.31620 | 16878 ft | 394 kts | 108° |
| 2026-04-15 11:35 | 39.14373 | -78.28262 | 16891 ft | 395 kts | 108° |
| 2026-04-15 11:35 | 39.13522 | -78.24894 | 16590 ft | 396 kts | 108° |
| 2026-04-15 11:35 | 39.12678 | -78.21534 | 16127 ft | 394 kts | 108° |
| 2026-04-15 11:35 | 39.11847 | -78.18210 | 15693 ft | 391 kts | 108° |
| 2026-04-15 11:36 | 39.11017 | -78.14882 | 15276 ft | 386 kts | 108° |
| 2026-04-15 11:36 | 39.10199 | -78.11610 | 14859 ft | 382 kts | 108° |
| 2026-04-15 11:36 | 39.09395 | -78.08416 | 14435 ft | 379 kts | 108° |
| 2026-04-15 11:36 | 39.08575 | -78.05201 | 14011 ft | 376 kts | 108° |
| 2026-04-15 11:37 | 39.07756 | -78.02006 | 13571 ft | 373 kts | 108° |
| 2026-04-15 11:37 | 39.06953 | -77.98874 | 13148 ft | 370 kts | 108° |
| 2026-04-15 11:37 | 39.06155 | -77.95761 | 12721 ft | 367 kts | 108° |
| 2026-04-15 11:37 | 39.05363 | -77.92672 | 12444 ft | 358 kts | 108° |
| 2026-04-15 11:38 | 39.04603 | -77.89711 | 12315 ft | 346 kts | 108° |
| 2026-04-15 11:38 | 39.03862 | -77.86829 | 12227 ft | 335 kts | 108° |
| 2026-04-15 11:38 | 39.03141 | -77.84027 | 11995 ft | 328 kts | 108° |
| 2026-04-15 11:38 | 39.02432 | -77.81271 | 11636 ft | 325 kts | 108° |
| 2026-04-15 11:39 | 39.01720 | -77.78507 | 11305 ft | 324 kts | 108° |
| 2026-04-15 11:39 | 39.01012 | -77.75764 | 10951 ft | 322 kts | 108° |
| 2026-04-15 11:39 | 39.00318 | -77.73077 | 10582 ft | 321 kts | 108° |
| 2026-04-15 11:39 | 38.99617 | -77.70368 | 10233 ft | 318 kts | 108° |
| 2026-04-15 11:40 | 38.98918 | -77.67676 | 9887 ft | 316 kts | 108° |
| 2026-04-15 11:40 | 38.98217 | -77.65023 | 9543 ft | 313 kts | 110° |
| 2026-04-15 11:40 | 38.97464 | -77.62425 | 9205 ft | 311 kts | 110° |
| 2026-04-15 11:40 | 38.96694 | -77.59827 | 8860 ft | 309 kts | 110° |
| 2026-04-15 11:41 | 38.95929 | -77.57253 | 8501 ft | 307 kts | 110° |
| 2026-04-15 11:41 | 38.95176 | -77.54713 | 8275 ft | 300 kts | 110° |
| 2026-04-15 11:41 | 38.94534 | -77.52219 | 8090 ft | 291 kts | 97° |
| 2026-04-15 11:41 | 38.94705 | -77.49706 | 7749 ft | 284 kts | 67° |
| 2026-04-15 11:42 | 38.95491 | -77.47382 | 7314 ft | 285 kts | 61° |
| 2026-04-15 11:42 | 38.96359 | -77.45107 | 6861 ft | 288 kts | 60° |
| 2026-04-15 11:42 | 38.97219 | -77.42782 | 6400 ft | 291 kts | 62° |
| 2026-04-15 11:42 | 38.98059 | -77.40399 | 5927 ft | 293 kts | 63° |
| 2026-04-15 11:43 | 38.98875 | -77.38003 | 5464 ft | 296 kts | 64° |
| 2026-04-15 11:43 | 38.99686 | -77.35582 | 5021 ft | 297 kts | 64° |
| 2026-04-15 11:43 | 39.00493 | -77.33156 | 4631 ft | 295 kts | 64° |
| 2026-04-15 11:43 | 39.01302 | -77.30735 | 4269 ft | 290 kts | 64° |
| 2026-04-15 11:44 | 39.02080 | -77.28411 | 3934 ft | 276 kts | 64° |
| 2026-04-15 11:44 | 39.02811 | -77.26191 | 3611 ft | 263 kts | 68° |
| 2026-04-15 11:44 | 39.03010 | -77.23903 | 3275 ft | 263 kts | 103° |
| 2026-04-15 11:44 | 39.02166 | -77.21898 | 2977 ft | 256 kts | 137° |
| 2026-04-15 11:45 | 39.00853 | -77.20440 | 2846 ft | 238 kts | 142° |
| 2026-04-15 11:45 | 38.99656 | -77.19125 | 2827 ft | 220 kts | 141° |
| 2026-04-15 11:45 | 38.98558 | -77.17867 | 2876 ft | 202 kts | 140° |
| 2026-04-15 11:45 | 38.97589 | -77.16687 | 2783 ft | 181 kts | 139° |
| 2026-04-15 11:46 | 38.96708 | -77.15582 | 2714 ft | 173 kts | 139° |
| 2026-04-15 11:46 | 38.95838 | -77.14573 | 2627 ft | 164 kts | 142° |
| 2026-04-15 11:46 | 38.95013 | -77.13650 | 2467 ft | 153 kts | 143° |
| 2026-04-15 11:46 | 38.94207 | -77.12760 | 2368 ft | 153 kts | 143° |
| 2026-04-15 11:47 | 38.93385 | -77.11877 | 2107 ft | 153 kts | 147° |
| 2026-04-15 11:47 | 38.92511 | -77.11121 | 1744 ft | 152 kts | 151° |
| 2026-04-15 11:47 | 38.91622 | -77.10397 | 1375 ft | 151 kts | 151° |
| 2026-04-15 11:47 | 38.90850 | -77.09528 | 1032 ft | 146 kts | 121° |
| 2026-04-15 11:48 | 38.90461 | -77.08357 | 1025 ft | 145 kts | 111° |
| 2026-04-15 11:48 | 38.90082 | -77.07157 | 917 ft | 145 kts | 119° |
| 2026-04-15 11:48 | 38.89537 | -77.06070 | 618 ft | 142 kts | 130° |
| 2026-04-15 11:48 | 38.88906 | -77.05126 | 412 ft | 139 kts | 137° |
| 2026-04-15 11:49 | 38.88150 | -77.04359 | 355 ft | 138 kts | 151° |
| 2026-04-15 11:49 | 38.87273 | -77.03915 | 176 ft | 136 kts | 171° |
| 2026-04-15 11:49 | 38.86326 | -77.03869 | 56 ft | 135 kts | 179° |
| 2026-04-15 11:49 | 38.85486 | -77.03812 | 19 ft | 85 kts | 176° |
| 2026-04-15 11:50 | 38.85160 | -77.03780 | 22 ft | 18 kts | 176° |
| 2026-04-15 11:50 | 38.85124 | -77.03777 | 21 ft | 4 kts | 176° |
| 2026-04-15 11:50 | 38.85019 | -77.03768 | 20 ft | 19 kts | 176° |
| 2026-04-15 11:50 | 38.84894 | -77.03805 | 19 ft | 18 kts | 235° |
| 2026-04-15 11:51 | 38.84913 | -77.03889 | 20 ft | 10 kts | 339° |
| 2026-04-15 11:51 | 38.84987 | -77.03900 | 21 ft | 11 kts | 355° |
| 2026-04-15 11:51 | 38.85066 | -77.03909 | 21 ft | 11 kts | 355° |
| 2026-04-15 11:51 | 38.85148 | -77.03918 | 22 ft | 11 kts | 355° |
| 2026-04-15 11:52 | 38.85224 | -77.03933 | 23 ft | 10 kts | 335° |
| 2026-04-15 11:52 | 38.85290 | -77.03983 | 23 ft | 11 kts | 328° |
| 2026-04-15 11:52 | 38.85323 | -77.04067 | 24 ft | 9 kts | 256° |
| 2026-04-15 11:52 | 38.85291 | -77.04103 | 25 ft | 6 kts | 204° |
| 2026-04-15 11:53 | 38.85262 | -77.04121 | 25 ft | 1 kts | 205° |
| 2026-04-15 11:53 | 38.85260 | -77.04121 | 26 ft | 0 kts | 205° |